createdAt,value
2022-08-26T00:02:12.768Z,21.72
2022-08-26T00:05:15.846Z,21.72
2022-08-26T00:08:20.346Z,21.72
2022-08-26T00:11:26.528Z,21.82
2022-08-26T00:14:30.758Z,21.89
2022-08-26T00:17:34.159Z,22.03
2022-08-26T00:20:36.692Z,21.99
2022-08-26T00:23:39.361Z,21.97
2022-08-26T00:26:42.620Z,21.96
2022-08-26T00:29:45.777Z,21.87
2022-08-26T00:32:48.307Z,21.77
2022-08-26T00:35:51.617Z,21.74
2022-08-26T00:38:54.167Z,21.64
2022-08-26T00:41:57.223Z,21.61
2022-08-26T00:44:59.818Z,21.58
2022-08-26T00:48:05.719Z,21.64
2022-08-26T00:51:23.248Z,21.67
2022-08-26T00:54:30.116Z,21.67
2022-08-26T00:57:34.354Z,21.62
2022-08-26T01:00:37.230Z,21.60
2022-08-26T01:03:40.946Z,21.57
2022-08-26T01:06:44.577Z,21.54
2022-08-26T01:09:48.105Z,21.45
2022-08-26T01:13:06.257Z,21.38
2022-08-26T01:16:12.965Z,21.28
2022-08-26T01:19:22.594Z,21.19
2022-08-26T01:22:55.357Z,21.14
2022-08-26T01:26:03.931Z,21.25
2022-08-26T01:29:12.866Z,21.23
2022-08-26T01:32:19.660Z,21.09
2022-08-26T01:35:22.352Z,21.00
2022-08-26T01:38:25.790Z,21.05
2022-08-26T01:41:34.081Z,21.09
2022-08-26T01:44:45.753Z,21.13
2022-08-26T01:47:56.521Z,21.08
2022-08-26T01:51:01.200Z,21.13
2022-08-26T01:54:08.401Z,21.04
2022-08-26T01:57:17.466Z,20.98
2022-08-26T02:00:20.554Z,20.89
2022-08-26T02:03:24.330Z,20.79
2022-08-26T02:06:27.267Z,20.77
2022-08-26T02:09:30.404Z,20.65
2022-08-26T02:12:33.906Z,20.59
2022-08-26T02:15:37.060Z,20.56
2022-08-26T02:18:42.690Z,20.56
2022-08-26T02:21:51.335Z,20.53
2022-08-26T02:25:02.295Z,20.50
2022-08-26T02:28:04.998Z,20.49
2022-08-26T02:31:08.144Z,20.47
2022-08-26T02:34:14.433Z,20.46
2022-08-26T02:37:18.078Z,20.42
2022-08-26T02:40:27.447Z,20.36
2022-08-26T02:43:31.643Z,20.42
2022-08-26T02:46:35.965Z,20.47
2022-08-26T02:49:44.372Z,20.49
2022-08-26T02:52:49.876Z,20.47
2022-08-26T02:55:53.235Z,20.41
2022-08-26T02:58:56.419Z,20.33
2022-08-26T03:01:59.251Z,20.36
2022-08-26T03:05:02.386Z,20.31
2022-08-26T03:08:05.314Z,20.22
2022-08-26T03:11:07.825Z,20.08
2022-08-26T03:14:13.401Z,20.05
2022-08-26T03:17:16.053Z,20.06
2022-08-26T03:20:18.975Z,19.96
2022-08-26T03:23:21.829Z,19.90
2022-08-26T03:26:24.704Z,19.87
2022-08-26T03:29:50.382Z,19.83
2022-08-26T03:32:53.362Z,19.75
2022-08-26T03:35:55.867Z,19.81
2022-08-26T03:38:59.559Z,19.75
2022-08-26T03:42:02.234Z,19.78
2022-08-26T03:45:08.292Z,19.75
2022-08-26T03:48:11.496Z,19.69
2022-08-26T03:51:19.058Z,19.66
2022-08-26T03:54:21.579Z,19.71
2022-08-26T03:57:24.339Z,19.86
2022-08-26T04:00:27.172Z,19.89
2022-08-26T04:03:49.223Z,19.88
2022-08-26T04:06:57.361Z,19.81
2022-08-26T04:10:00.199Z,19.79
2022-08-26T04:13:02.768Z,19.79
2022-08-26T04:16:07.036Z,19.75
2022-08-26T04:19:11.494Z,19.75
2022-08-26T04:22:14.413Z,19.82
2022-08-26T04:25:26.485Z,19.84
2022-08-26T04:28:29.901Z,19.88
2022-08-26T04:31:34.750Z,19.95
2022-08-26T04:34:38.245Z,20.01
2022-08-26T04:37:43.142Z,20.06
2022-08-26T04:40:46.895Z,20.09
2022-08-26T04:43:50.398Z,20.18
2022-08-26T04:46:54.868Z,20.27
2022-08-26T04:49:58.158Z,20.45
2022-08-26T04:53:02.051Z,20.51
2022-08-26T04:56:04.998Z,20.61
2022-08-26T04:59:16.691Z,20.61
2022-08-26T05:02:19.809Z,20.65
2022-08-26T05:05:22.595Z,20.70
2022-08-26T05:08:25.212Z,20.80
2022-08-26T05:11:28.260Z,20.87
2022-08-26T05:14:32.209Z,20.97
2022-08-26T05:17:37.537Z,21.05
2022-08-26T05:20:44.492Z,21.12
2022-08-26T05:23:51.297Z,21.33
2022-08-26T05:26:53.824Z,21.33
2022-08-26T05:29:57.413Z,21.43
2022-08-26T05:33:00.002Z,21.50
2022-08-26T05:36:10.549Z,21.59
2022-08-26T05:39:13.756Z,21.73
2022-08-26T05:42:16.892Z,21.93
2022-08-26T05:45:20.233Z,22.00
2022-08-26T05:48:24.376Z,22.10
2022-08-26T05:51:27.071Z,22.08
2022-08-26T05:54:34.817Z,22.24
2022-08-26T05:57:42.199Z,22.31
2022-08-26T06:00:45.878Z,22.41
2022-08-26T06:03:51.808Z,22.50
2022-08-26T06:06:54.362Z,22.58
2022-08-26T06:10:21.376Z,22.61
2022-08-26T06:13:23.882Z,22.70
2022-08-26T06:16:27.155Z,22.80
2022-08-26T06:19:33.117Z,22.95
2022-08-26T06:22:55.977Z,23.09
2022-08-26T06:25:58.975Z,23.27
2022-08-26T06:29:03.064Z,23.43
2022-08-26T06:32:06.949Z,23.74
2022-08-26T06:35:12.427Z,24.00
2022-08-26T06:38:15.606Z,24.12
2022-08-26T06:41:20.960Z,24.33
2022-08-26T06:44:23.489Z,24.52
2022-08-26T06:47:26.327Z,24.64
2022-08-26T06:50:28.803Z,24.88
2022-08-26T06:53:31.820Z,25.15
2022-08-26T06:56:40.854Z,25.51
2022-08-26T06:59:43.628Z,26.16
2022-08-26T07:02:47.222Z,27.40
2022-08-26T07:05:50.311Z,27.81
2022-08-26T07:09:05.044Z,27.31
2022-08-26T07:12:09.668Z,27.96
2022-08-26T07:15:13.563Z,28.33
2022-08-26T07:18:19.084Z,27.94
2022-08-26T07:21:26.044Z,29.34
2022-08-26T07:24:29.194Z,28.67
2022-08-26T07:27:31.780Z,28.83
2022-08-26T07:30:39.656Z,30.19
2022-08-26T07:33:44.049Z,30.01
2022-08-26T07:36:46.871Z,30.36
2022-08-26T07:39:51.455Z,30.18
2022-08-26T07:42:54.946Z,30.94
2022-08-26T07:45:57.697Z,32.16
2022-08-26T07:49:00.850Z,31.13
2022-08-26T07:52:04.657Z,30.91
2022-08-26T07:55:08.709Z,32.13
2022-08-26T07:58:11.304Z,32.16
2022-08-26T08:01:14.290Z,33.04
2022-08-26T08:04:19.440Z,32.07
2022-08-26T08:07:44.992Z,32.46
2022-08-26T08:10:48.855Z,32.92
2022-08-26T08:13:56.150Z,33.87
2022-08-26T08:16:59.747Z,34.84
2022-08-26T08:20:03.760Z,33.83
2022-08-26T08:23:07.089Z,32.66
2022-08-26T08:26:10.868Z,32.99
2022-08-26T08:29:13.655Z,33.85
2022-08-26T08:32:16.134Z,33.19
2022-08-26T08:35:23.943Z,34.23
2022-08-26T08:38:28.754Z,36.25
2022-08-26T08:41:52.237Z,35.46
2022-08-26T08:44:58.507Z,36.90
2022-08-26T08:48:12.563Z,36.65
2022-08-26T08:51:42.355Z,36.27
2022-08-26T08:54:46.699Z,36.98
2022-08-26T08:58:10.043Z,36.47
2022-08-26T09:01:28.061Z,38.22
2022-08-26T09:04:49.336Z,37.04
2022-08-26T09:08:01.402Z,36.75
2022-08-26T09:11:04.403Z,37.61
2022-08-26T09:14:08.673Z,39.82
2022-08-26T09:17:21.717Z,38.35
2022-08-26T09:20:43.983Z,39.93
2022-08-26T09:23:49.795Z,37.54
2022-08-26T09:26:56.544Z,37.51
2022-08-26T09:29:59.653Z,36.27
2022-08-26T09:33:11.036Z,34.53
2022-08-26T09:36:23.027Z,34.03
2022-08-26T09:39:33.122Z,36.45
2022-08-26T09:42:35.850Z,37.98
2022-08-26T09:45:41.680Z,37.32
2022-08-26T09:48:53.362Z,37.31
2022-08-26T09:52:11.707Z,39.17
2022-08-26T09:55:23.690Z,41.78
2022-08-26T09:58:38.640Z,40.56
2022-08-26T10:01:44.881Z,35.20
2022-08-26T10:04:54.223Z,33.70
2022-08-26T10:07:58.573Z,33.27
2022-08-26T10:11:12.109Z,32.13
2022-08-26T10:14:14.594Z,31.80
2022-08-26T10:17:34.172Z,31.20
2022-08-26T10:20:50.019Z,30.92
2022-08-26T10:23:57.303Z,31.23
2022-08-26T10:26:59.753Z,31.39
2022-08-26T10:30:10.388Z,31.54
2022-08-26T10:33:17.911Z,31.34
2022-08-26T10:37:10.738Z,31.62
2022-08-26T10:40:07.967Z,31.66
2022-08-26T10:43:32.822Z,32.48
2022-08-26T10:46:40.978Z,35.99
2022-08-26T10:49:47.664Z,37.24
2022-08-26T10:52:59.485Z,39.47
2022-08-26T10:56:15.833Z,41.80
2022-08-26T10:59:28.925Z,42.88
2022-08-26T11:02:49.226Z,42.28
2022-08-26T11:06:17.599Z,41.89
2022-08-26T11:09:52.722Z,44.42
2022-08-26T11:13:04.493Z,42.30
2022-08-26T11:16:08.349Z,42.28
2022-08-26T11:19:58.879Z,43.50
2022-08-26T11:23:13.028Z,40.95
2022-08-26T11:26:35.550Z,39.88
2022-08-26T11:30:08.543Z,42.00
2022-08-26T11:34:08.753Z,45.68
2022-08-26T11:37:17.701Z,46.35
2022-08-26T11:40:25.386Z,44.92
2022-08-26T11:43:29.869Z,46.21
2022-08-26T11:46:37.658Z,44.48
2022-08-26T11:49:41.796Z,44.77
2022-08-26T11:52:57.341Z,43.45
2022-08-26T11:56:04.222Z,45.06
2022-08-26T11:59:17.445Z,44.73
2022-08-26T12:02:33.457Z,46.34
2022-08-26T12:05:47.829Z,48.75
2022-08-26T12:08:52.039Z,48.00
2022-08-26T12:12:35.004Z,48.99
2022-08-26T12:15:41.289Z,44.29
2022-08-26T12:18:49.912Z,43.69
2022-08-26T12:22:01.548Z,45.22
2022-08-26T12:25:11.363Z,46.69
2022-08-26T12:28:14.459Z,47.63
2022-08-26T12:31:27.518Z,49.88
2022-08-26T12:34:30.789Z,49.98
2022-08-26T12:37:37.475Z,46.55
2022-08-26T12:40:46.251Z,48.92
2022-08-26T12:44:30.469Z,44.51
2022-08-26T12:47:43.512Z,46.36
2022-08-26T12:50:49.040Z,46.65
2022-08-26T12:53:55.203Z,44.99
2022-08-26T12:57:11.749Z,45.69
2022-08-26T13:00:36.905Z,47.43
2022-08-26T13:03:43.733Z,47.09
2022-08-26T13:06:55.262Z,47.70
2022-08-26T13:10:06.926Z,48.50
2022-08-26T13:13:13.029Z,47.43
2022-08-26T13:16:16.869Z,49.23
2022-08-26T13:19:22.810Z,51.00
2022-08-26T13:22:31.702Z,49.62
2022-08-26T13:25:34.650Z,48.30
2022-08-26T13:28:42.964Z,47.10
2022-08-26T13:31:46.526Z,48.54
2022-08-26T13:34:52.248Z,47.73
2022-08-26T13:37:58.289Z,46.04
2022-08-26T13:41:02.647Z,46.61
2022-08-26T13:47:27.685Z,49.58
2022-08-26T13:50:30.575Z,51.05
2022-08-26T13:53:34.905Z,48.92
2022-08-26T13:56:40.181Z,49.64
2022-08-26T13:59:43.359Z,50.66
2022-08-26T14:02:49.554Z,48.13
2022-08-26T14:05:54.567Z,45.81
2022-08-26T14:08:57.771Z,47.45
2022-08-26T14:12:04.281Z,47.87
2022-08-26T14:15:08.224Z,43.08
2022-08-26T14:18:16.891Z,40.53
2022-08-26T14:21:22.949Z,40.91
2022-08-26T14:24:27.631Z,40.24
2022-08-26T14:27:30.144Z,38.29
2022-08-26T14:30:33.792Z,36.25
2022-08-26T14:33:46.086Z,37.96
2022-08-26T14:36:51.313Z,39.17
2022-08-26T14:39:54.372Z,36.08
2022-08-26T14:42:59.332Z,35.28
2022-08-26T14:46:01.913Z,35.13
2022-08-26T14:49:10.527Z,34.60
2022-08-26T14:52:13.591Z,34.18
2022-08-26T14:55:16.451Z,33.98
2022-08-26T14:58:19.532Z,33.75
2022-08-26T15:01:22.330Z,33.69
2022-08-26T15:04:25.444Z,33.75
2022-08-26T15:07:28.698Z,33.10
2022-08-26T15:10:31.276Z,33.40
2022-08-26T15:13:34.122Z,33.29
2022-08-26T15:16:36.881Z,32.80
2022-08-26T15:19:40.194Z,32.76
2022-08-26T15:22:43.224Z,33.00
2022-08-26T15:25:46.403Z,32.88
2022-08-26T15:28:51.854Z,32.86
2022-08-26T15:31:57.643Z,32.65
2022-08-26T15:35:00.269Z,32.60
2022-08-26T15:38:03.019Z,32.41
2022-08-26T15:41:08.564Z,32.14
2022-08-26T15:44:12.472Z,32.27
2022-08-26T15:47:19.212Z,32.09
2022-08-26T15:50:24.344Z,31.91
2022-08-26T15:53:28.173Z,31.92
2022-08-26T15:56:36.426Z,31.92
2022-08-26T15:59:38.999Z,31.85
2022-08-26T16:02:41.944Z,31.78
2022-08-26T16:05:45.891Z,31.88
2022-08-26T16:08:53.354Z,31.61
2022-08-26T16:11:57.598Z,31.63
2022-08-26T16:15:01.016Z,31.57
2022-08-26T16:18:06.009Z,31.34
2022-08-26T16:21:17.030Z,31.31
2022-08-26T16:24:24.854Z,31.29
2022-08-26T16:27:29.698Z,31.27
2022-08-26T16:30:34.458Z,31.11
2022-08-26T16:33:38.256Z,31.05
2022-08-26T16:36:42.317Z,30.89
2022-08-26T16:39:47.726Z,30.81
2022-08-26T16:42:54.866Z,30.73
2022-08-26T16:45:57.607Z,30.57
2022-08-26T16:49:04.568Z,30.44
2022-08-26T16:52:08.897Z,30.39
2022-08-26T16:55:15.322Z,30.34
2022-08-26T16:58:21.974Z,30.31
2022-08-26T17:01:25.764Z,30.25
2022-08-26T17:04:29.483Z,30.20
2022-08-26T17:07:32.313Z,30.10
2022-08-26T17:10:34.962Z,30.01
2022-08-26T17:13:39.057Z,29.90
2022-08-26T17:16:41.628Z,29.79
2022-08-26T17:19:46.979Z,29.69
2022-08-26T17:22:53.726Z,29.64
2022-08-26T17:26:02.505Z,29.48
2022-08-26T17:29:09.432Z,29.40
2022-08-26T17:32:12.672Z,29.29
2022-08-26T17:35:20.422Z,29.15
2022-08-26T17:38:23.820Z,28.99
2022-08-26T17:41:27.343Z,28.75
2022-08-26T17:44:31.431Z,28.56
2022-08-26T17:47:34.684Z,28.36
2022-08-26T17:50:40.315Z,28.21
2022-08-26T17:53:43.575Z,28.02
2022-08-26T17:56:46.450Z,27.86
2022-08-26T17:59:49.133Z,27.73
2022-08-26T18:02:55.947Z,27.58
2022-08-26T18:05:58.779Z,27.53
2022-08-26T18:09:01.483Z,27.57
2022-08-26T18:12:05.028Z,27.42
2022-08-26T18:15:08.259Z,27.24
2022-08-26T18:18:12.190Z,27.15
2022-08-26T18:21:17.334Z,27.02
2022-08-26T18:24:22.320Z,26.93
2022-08-26T18:27:24.785Z,26.76
2022-08-26T18:30:27.606Z,26.64
2022-08-26T18:33:30.058Z,26.54
2022-08-26T18:36:36.801Z,26.42
2022-08-26T18:39:42.223Z,26.51
2022-08-26T18:42:46.096Z,26.31
2022-08-26T18:46:01.690Z,26.24
2022-08-26T18:49:04.494Z,26.14
2022-08-26T18:52:07.014Z,26.07
2022-08-26T18:55:10.224Z,26.32
2022-08-26T18:58:12.789Z,26.28
2022-08-26T19:01:17.126Z,26.17
2022-08-26T19:04:19.973Z,26.17
2022-08-26T19:07:22.867Z,26.09
2022-08-26T19:10:25.455Z,26.01
2022-08-26T19:13:28.302Z,25.86
2022-08-26T19:16:31.605Z,25.77
2022-08-26T19:19:34.807Z,25.71
2022-08-26T19:22:37.334Z,25.60
2022-08-26T19:25:45.924Z,25.56
2022-08-26T19:28:50.069Z,25.53
2022-08-26T19:31:52.862Z,25.49
2022-08-26T19:34:55.456Z,25.63
2022-08-26T19:37:58.370Z,25.62
2022-08-26T19:41:00.813Z,25.43
2022-08-26T19:44:09.388Z,25.28
2022-08-26T19:47:15.533Z,25.33
2022-08-26T19:50:18.392Z,25.43
2022-08-26T19:53:20.862Z,25.45
2022-08-26T19:56:23.850Z,25.53
2022-08-26T19:59:26.451Z,25.33
2022-08-26T20:02:30.915Z,25.13
2022-08-26T20:05:34.027Z,25.07
2022-08-26T20:08:38.826Z,24.98
2022-08-26T20:11:41.514Z,24.92
2022-08-26T20:14:44.374Z,24.92
2022-08-26T20:17:47.616Z,24.80
2022-08-26T20:21:10.259Z,24.74
2022-08-26T20:24:16.310Z,24.64
2022-08-26T20:27:19.000Z,24.62
2022-08-26T20:30:21.970Z,24.57
2022-08-26T20:33:24.575Z,24.49
2022-08-26T20:36:28.327Z,24.43
2022-08-26T20:39:30.801Z,24.35
2022-08-26T20:45:37.679Z,24.31
2022-08-26T20:48:40.610Z,24.16
2022-08-26T20:51:43.277Z,24.03
2022-08-26T20:54:46.078Z,23.94
2022-08-26T20:57:48.826Z,23.88
2022-08-26T21:00:52.288Z,23.85
2022-08-26T21:03:56.902Z,23.77
2022-08-26T21:06:59.621Z,23.73
2022-08-26T21:10:03.458Z,23.71
2022-08-26T21:13:07.801Z,23.65
2022-08-26T21:16:11.945Z,23.60
2022-08-26T21:19:18.086Z,23.63
2022-08-26T21:22:21.197Z,23.62
2022-08-26T21:25:24.029Z,23.61
2022-08-26T21:28:26.670Z,23.55
2022-08-26T21:31:33.995Z,23.52
2022-08-26T21:34:36.693Z,23.49
2022-08-26T21:37:39.701Z,23.51
2022-08-26T21:40:42.252Z,23.90
2022-08-26T21:43:47.144Z,23.86
2022-08-26T21:46:50.880Z,23.80
2022-08-26T21:49:54.525Z,23.74
2022-08-26T21:52:57.923Z,23.75
2022-08-26T21:56:05.424Z,23.69
2022-08-26T21:59:08.707Z,23.51
2022-08-26T22:02:11.559Z,23.48
2022-08-26T22:05:14.446Z,23.30
2022-08-26T22:08:20.137Z,23.31
2022-08-26T22:11:26.007Z,23.22
2022-08-26T22:14:30.892Z,23.13
2022-08-26T22:17:33.884Z,23.06
2022-08-26T22:20:36.422Z,23.04
2022-08-26T22:23:39.271Z,22.95
2022-08-26T22:26:42.435Z,22.91
2022-08-26T22:29:47.901Z,22.88
2022-08-26T22:32:50.412Z,22.86
2022-08-26T22:35:53.848Z,22.79
2022-08-26T22:38:57.413Z,22.75
2022-08-26T22:42:01.695Z,22.68
2022-08-26T22:45:05.921Z,22.62
2022-08-26T22:48:10.325Z,22.50
2022-08-26T22:51:13.628Z,22.42
2022-08-26T22:54:16.838Z,22.34
2022-08-26T22:57:20.912Z,22.29
2022-08-26T23:00:31.874Z,22.27
2022-08-26T23:03:35.256Z,22.25
2022-08-26T23:06:39.938Z,22.24
2022-08-26T23:09:42.650Z,22.19
2022-08-26T23:12:45.378Z,22.17
2022-08-26T23:15:48.874Z,22.10
2022-08-26T23:18:51.646Z,22.04
2022-08-26T23:21:54.393Z,21.95
2022-08-26T23:24:57.896Z,21.91
2022-08-26T23:28:02.764Z,21.91
2022-08-26T23:31:06.962Z,21.85
2022-08-26T23:34:28.832Z,21.78
2022-08-26T23:37:36.440Z,21.71
2022-08-26T23:40:41.907Z,21.62
2022-08-26T23:43:45.105Z,21.55
2022-08-26T23:46:47.674Z,21.53
2022-08-26T23:49:50.358Z,21.50
2022-08-26T23:53:08.769Z,21.49
2022-08-26T23:56:16.342Z,21.45
2022-08-26T23:59:18.953Z,21.36
